Mount Hope, West Virginia
Current Conditions -  °F | °C
As of 8:51 AM on Monday 22 Dec 2014 (Local Time) from KBKW Reporting Station
Overcast Overcast  
Wind Chill: 30°   Ceiling: 4500
Heat Index: 36°   Visibility: 10mi
Dew Point: 30°   Wind: 7mph
Humidity: 79%   Direction: 110°ESE
Pressure: 30.07"   Gusts: NA
Location:  37.9°N, 81.16°W
Report Text: KBKW 221351Z AUTO 11006KT 10SM OVC045 02/M01 A3007 RMK AO2 SLP201 T00221011
Loading
Personal Weather Stations






























Interactive Weather Map New forecast layout! Learn more

10-Day Weather Forecast

Advertisements
Track Severe Weather on mobile